Time;durP1;ratioP1;P1;durP2;ratioP2;P2;SDS_P1;SDS_P2;PMS_P1;PMS_P2;Temp;Humidity;BMP_temperature;BMP_pressure;BME280_temperature;BME280_humidity;BME280_pressure;Samples;Min_cycle;Max_cycle;Signal;HPM_P1;HPM_P2
2024/01/01 00:01:14;;;;;;;15.95;9.15;;;;;;;6.34;62.77;94446.88;6157756;23;20128;-87
2024/01/01 01:11:34;;;;;;;10.93;6.78;;;;;;;5.54;62.46;94421.22;6187730;23;20080;-87
2024/01/01 01:23:55;;;;;;;9.40;5.38;;;;;;;5.86;61.92;94413.38;6209598;23;20024;-86
2024/01/01 01:26:21;;;;;;;;;;;;;;;5.72;62.65;94423.59;6187589;23;20017;-85
2024/01/01 01:28:48;;;;;;;9.98;5.53;;;;;;;6.00;61.32;94424.00;6187702;23;19903;-86
2024/01/01 03:12:53;;;;;;;16.63;8.52;;;;;;;6.40;60.18;94424.75;6181206;23;21007;-86
2024/01/01 03:15:19;;;;;;;13.80;7.90;;;;;;;6.68;59.44;94435.34;6158938;23;20021;-86
2024/01/01 03:17:45;;;;;;;17.73;9.50;;;;;;;6.65;59.75;94421.00;6159110;23;20011;-86
2024/01/01 04:11:58;;;;;;;19.63;8.90;;;;;;;6.19;62.85;94533.78;6154921;23;20152;-86
2024/01/01 04:14:23;;;;;;;17.92;9.85;;;;;;;6.48;61.86;94530.59;6080605;23;20040;-87
2024/01/01 05:11:05;;;;;;;18.02;8.88;;;;;;;6.56;60.88;94522.78;6146194;23;20018;-86
2024/01/01 05:13:30;;;;;;;17.63;9.27;;;;;;;6.43;61.80;94525.91;6104509;23;20013;-86
2024/01/01 07:40:58;;;;;;;11.60;6.68;;;;;;;6.89;60.58;94610.47;6178801;23;20017;-87
2024/01/01 08:08:49;;;;;;;26.50;12.18;;;;;;;7.13;60.46;94632.03;6211129;22;20024;-85
2024/01/01 08:11:18;;;;;;;17.67;9.93;;;;;;;6.92;61.08;94636.00;6193183;23;20073;-86
2024/01/01 08:13:45;;;;;;;14.43;8.38;;;;;;;7.32;59.46;94634.16;6193668;23;20012;-86
2024/01/01 08:16:18;;;;;;;25.27;14.80;;;;;;;7.13;60.52;94634.63;6218194;23;20055;-86
2024/01/01 08:18:44;;;;;;;17.60;11.70;;;;;;;7.37;60.24;94644.03;6218320;23;20050;-86
2024/01/01 08:29:09;;;;;;;11.10;6.15;;;;;;;7.14;60.23;94639.63;6212835;23;20058;-85
2024/01/01 08:34:00;;;;;;;11.30;6.65;;;;;;;7.28;60.30;94630.31;6200621;23;20025;-85
2024/01/01 08:36:26;;;;;;;11.10;6.30;;;;;;;7.48;59.84;94619.50;6133849;23;20119;-86
2024/01/01 08:38:52;;;;;;;13.23;7.25;;;;;;;7.74;60.18;94651.00;6134164;23;20009;-86
2024/01/01 08:41:17;;;;;;;13.43;7.30;;;;;;;7.74;60.53;94643.25;6182736;23;20000;-86
2024/01/01 08:43:43;;;;;;;13.45;7.05;;;;;;;7.66;60.90;94632.16;6182577;23;20071;-87
2024/01/01 08:46:08;;;;;;;10.65;6.07;;;;;;;7.64;60.46;94629.75;6182461;23;20009;-87
2024/01/01 08:48:36;;;;;;;12.90;6.28;;;;;;;7.72;60.54;94636.66;6158231;23;20016;-85
2024/01/01 10:14:03;;;;;;;6.30;4.82;;;;;;;12.68;50.29;94660.72;6177016;23;20025;-85
2024/01/01 10:16:33;;;;;;;5.65;4.03;;;;;;;13.04;48.59;94654.19;6126202;23;20106;-86
2024/01/01 10:19:00;;;;;;;8.13;4.80;;;;;;;13.07;49.52;94645.94;6126489;23;20084;-86
2024/01/01 10:21:32;;;;;;;7.38;4.40;;;;;;;13.28;49.60;94651.88;6155459;23;20084;-85
2024/01/01 10:24:11;;;;;;;7.30;4.57;;;;;;;13.44;48.38;94658.47;6156268;23;20028;-86
2024/01/01 10:31:48;;;;;;;7.22;5.32;;;;;;;14.01;48.22;94668.97;6170548;23;20031;-86
2024/01/01 10:34:14;;;;;;;6.90;4.88;;;;;;;13.70;48.29;94657.53;6191140;23;20090;-85
2024/01/01 10:36:41;;;;;;;7.63;4.95;;;;;;;13.61;48.38;94659.59;6190919;23;20026;-86
2024/01/01 10:39:08;;;;;;;6.70;5.10;;;;;;;13.53;48.58;94648.59;6217055;23;20035;-85
2024/01/01 10:41:36;;;;;;;7.07;5.60;;;;;;;13.41;48.84;94661.50;6217720;23;20031;-87
2024/01/01 15:16:08;;;;;;;;;;;;;;;;;;;;;
2024/01/01 15:36:32;;;;;;;4.55;2.95;;;;;;;10.29;51.35;94673.84;6181916;23;20021;-86
2024/01/01 15:38:58;;;;;;;5.05;3.00;;;;;;;10.04;51.99;94687.25;6134016;23;20023;-86
2024/01/01 15:41:23;;;;;;;6.18;3.55;;;;;;;9.92;53.53;94684.34;6132732;23;20099;-86
2024/01/01 15:43:49;;;;;;;5.82;3.67;;;;;;;10.13;53.12;94680.13;6108287;23;20013;-86
2024/01/01 16:25:27;;;;;;;5.25;2.72;;;;;;;8.88;54.44;94733.09;6179668;23;20024;-86
2024/01/01 16:27:53;;;;;;;4.38;2.53;;;;;;;8.99;52.71;94738.63;6157628;23;20021;-86
2024/01/01 16:30:18;;;;;;;4.05;2.35;;;;;;;8.99;52.63;94724.88;6157861;23;20005;-86
2024/01/01 16:32:44;;;;;;;5.72;2.95;;;;;;;8.90;52.89;94728.53;6133445;23;20015;-86
2024/01/01 16:35:10;;;;;;;4.47;2.92;;;;;;;9.03;52.20;94741.69;6132805;23;20013;-86
2024/01/01 17:02:17;;;;;;;5.05;2.40;;;;;;;8.56;52.95;94748.78;6182284;23;20063;-86
2024/01/01 17:04:45;;;;;;;3.88;2.72;;;;;;;8.65;52.50;94744.34;6122468;23;20018;-86
2024/01/01 17:07:11;;;;;;;4.93;3.05;;;;;;;8.50;53.20;94748.69;6123238;23;20017;-85
2024/01/01 17:09:37;;;;;;;6.60;3.10;;;;;;;8.50;53.06;94761.66;6123219;23;20009;-86
2024/01/01 17:36:58;;;;;;;4.85;2.35;;;;;;;8.03;53.84;94748.72;6211553;23;20029;-86
2024/01/01 17:39:24;;;;;;;7.45;2.70;;;;;;;7.92;54.30;94748.28;6187474;23;20020;-85
2024/01/01 22:22:50;;;;;;;3.83;1.90;;;;;;;5.27;60.23;94614.00;6228672;23;20060;-87
2024/01/01 22:25:15;;;;;;;4.35;2.08;;;;;;;5.63;58.73;94609.34;6186947;23;20037;-86
2024/01/01 22:27:47;;;;;;;5.93;1.92;;;;;;;5.63;58.47;94588.69;6186999;23;20008;-86
2024/01/01 22:30:13;;;;;;;5.13;2.10;;;;;;;6.00;57.42;94610.66;6186953;23;20028;-86
2024/01/01 22:55:38;;;;;;;3.97;2.03;;;;;;;6.07;57.81;94574.63;6213678;23;20032;-87
2024/01/01 23:23:57;;;;;;;3.38;2.10;;;;;;;5.43;58.66;94583.09;6211010;23;20028;-87
2024/01/01 23:26:26;;;;;;;3.70;2.10;;;;;;;5.86;57.15;94594.03;6139389;23;20017;-85
2024/01/01 23:28:56;;;;;;;4.38;2.28;;;;;;;5.47;58.08;94581.00;6188605;23;20004;-86
2024/01/01 23:31:23;;;;;;;4.70;2.30;;;;;;;5.01;59.25;94565.97;6188103;23;20005;-87
2024/01/01 23:33:49;;;;;;;5.25;2.25;;;;;;;5.01;58.57;94567.75;6188935;23;20000;-86
2024/01/01 23:36:15;;;;;;;3.50;1.58;;;;;;;5.34;58.47;94576.31;6138588;23;20017;-87
2024/01/01 23:38:41;;;;;;;4.63;2.10;;;;;;;5.68;56.56;94578.72;6163193;23;20012;-87
2024/01/01 23:41:06;;;;;;;3.17;1.90;;;;;;;5.71;56.93;94574.19;6188006;23;20058;-87
2024/01/01 23:43:31;;;;;;;3.60;1.80;;;;;;;5.86;56.55;94586.28;6188279;23;20015;-86
2024/01/01 23:51:07;;;;;;;3.20;1.83;;;;;;;6.22;54.84;94585.09;6154033;23;20017;-87
2024/01/01 23:53:33;;;;;;;2.45;1.50;;;;;;;5.97;55.19;94581.78;6129148;23;20063;-86
2024/01/01 23:55:59;;;;;;;2.95;1.48;;;;;;;5.92;55.38;94591.75;6104108;23;20017;-86
2024/01/01 23:58:25;;;;;;;1.95;1.30;;;;;;;5.78;56.18;94575.16;6104681;23;20088;-86
